True Love — WDG3367 — position and weather

sailwx.info

Track history (hours):
 
Tides and Currents Weather Stations Pressure Air Temp Water Temp Dewpoint Dewpoint Depression Visibility Wind Speed Wind Dir Waves Ship Positions

True Love

Owner: Spady, James R, Snoqualmie Pass, WA. More information available from US FCC via Universal Licensing System and Coast Guard Vessel Documentation Center.

Last reported at 2016-Aug-28 08:21 UTC. Time now 2016-Aug-28 08:47 UTC.
Position N 47°38' W 122°24'.

Length 16 m.

Type: Pleasure craft. MMSI: 367525310.

Date/timePositionNaut miles runAvg speedWind from/ knotsBaromVisibWave heightAir tempDewpointWater temp
2016-Aug-28 08:21N 47°38' W 122°24'0 0.0
2016-Aug-28 07:30N 47°38' W 122°24'0 0.0
2016-Aug-28 06:33N 47°38' W 122°24'0 0.0
2016-Aug-28 05:33N 47°38' W 122°24'0 0.0
2016-Aug-28 04:33N 47°38' W 122°24'0 0.0
2016-Aug-28 02:21N 47°38' W 122°24'0 0.0
2016-Aug-28 01:27N 47°38' W 122°24'0 0.0
2016-Aug-28 00:15N 47°38' W 122°24'0 0.0
2016-Aug-27 23:27N 47°38' W 122°24'0 0.0
2016-Aug-27 22:33N 47°38' W 122°24'0 0.0
2016-Aug-27 21:33N 47°38' W 122°24'0 0.0
2016-Aug-27 20:33N 47°38' W 122°24'0 0.0
2016-Aug-27 19:33N 47°38' W 122°24'0 0.0
2016-Aug-27 18:33N 47°38' W 122°24'0 0.0
2016-Aug-27 17:27N 47°38' W 122°24'0 0.0
2016-Aug-27 16:33N 47°38' W 122°24'0 0.0
2016-Aug-27 15:33N 47°38' W 122°24'0 0.0
2016-Aug-27 14:33N 47°38' W 122°24'0 0.0
2016-Aug-27 13:33N 47°38' W 122°24'0 0.0
2016-Aug-27 12:21N 47°38' W 122°24'0 0.0
2016-Aug-27 11:33N 47°38' W 122°24'0 0.0
2016-Aug-27 10:33N 47°38' W 122°24'0 0.0
2016-Aug-27 09:33N 47°38' W 122°24'0 0.0
2016-Aug-27 08:33N 47°38' W 122°24'0 0.0
2016-Aug-27 07:33N 47°38' W 122°24'0 0.0
2016-Aug-27 06:33N 47°38' W 122°24'0 0.0
2016-Aug-27 04:27N 47°38' W 122°24'0 0.0
2016-Aug-27 03:33N 47°38' W 122°24'0 0.0
2016-Aug-27 02:30N 47°38' W 122°24'0 0.0
2016-Aug-27 01:30N 47°38' W 122°24'0 0.0
2016-Aug-27 00:33N 47°38' W 122°24'0 0.0
2016-Aug-26 23:15N 47°38' W 122°24'0 0.0
2016-Aug-26 17:18N 47°38' W 122°24'0 0.0
2016-Aug-26 16:12N 47°38' W 122°24'0 0.1
2016-Aug-26 15:33N 47°38' W 122°24'0 0.0
2016-Aug-26 14:21N 47°38' W 122°24'0 0.0
2016-Aug-26 13:24N 47°38' W 122°24'0 0.0
2016-Aug-26 12:27N 47°38' W 122°24'0 0.0
2016-Aug-26 11:33N 47°38' W 122°24'0 0.0
2016-Aug-26 10:33N 47°38' W 122°24'0 0.0
2016-Aug-26 09:33N 47°38' W 122°24'0 0.0
2016-Aug-26 08:33N 47°38' W 122°24'0 0.0
2016-Aug-26 07:33N 47°38' W 122°24'0 0.0
2016-Aug-26 06:33N 47°38' W 122°24'0 0.0
2016-Aug-26 04:33N 47°38' W 122°24'0 0.0
2016-Aug-26 03:33N 47°38' W 122°24'6 5.7
2016-Aug-26 02:33N 47°33' W 122°28'4 1.5
2016-Aug-25 23:33N 47°37' W 122°25'1 1.3
2016-Aug-25 22:33N 47°38' W 122°24'0 0.0
2016-Aug-25 21:32N 47°38' W 122°24'0 0.0
2016-Aug-25 20:32N 47°38' W 122°24'0 0.0
2016-Aug-25 19:32N 47°38' W 122°24'0 0.0
2016-Aug-25 18:34N 47°38' W 122°24'0 0.0
2016-Aug-25 17:33N 47°38' W 122°24'0 0.0
2016-Aug-25 16:33N 47°38' W 122°24'0 0.0
2016-Aug-25 15:32N 47°38' W 122°24'0 0.0
2016-Aug-25 14:33N 47°38' W 122°24'0 0.0
2016-Aug-25 13:33N 47°38' W 122°24'0 0.0
2016-Aug-25 12:33N 47°38' W 122°24'0 0.0
2016-Aug-25 11:33N 47°38' W 122°24'0 0.0
2016-Aug-25 10:32N 47°38' W 122°24'0 0.0
2016-Aug-25 09:33N 47°38' W 122°24'0 0.0
2016-Aug-25 08:33N 47°38' W 122°24'0 0.0
2016-Aug-25 07:33N 47°38' W 122°24'0 0.0
2016-Aug-25 06:32N 47°38' W 122°24'0 0.0
2016-Aug-25 04:32N 47°38' W 122°24'0 0.0
2016-Aug-25 03:32N 47°38' W 122°24'7 7.4
2016-Aug-25 02:33N 47°32' W 122°30'7 6.3
2016-Aug-25 01:24N 47°38' W 122°24'0 0.0
2016-Aug-25 00:33N 47°38' W 122°24'0 0.0
2016-Aug-24 23:33N 47°38' W 122°24'0 0.0
2016-Aug-24 22:33N 47°38' W 122°24'0 0.0
2016-Aug-24 21:33N 47°38' W 122°24'0 0.0
2016-Aug-24 20:33N 47°38' W 122°24'0 0.0
2016-Aug-24 19:33N 47°38' W 122°24'0 0.0
2016-Aug-24 18:33N 47°38' W 122°24'0 0.0
2016-Aug-24 17:31N 47°38' W 122°24'0 0.0
2016-Aug-24 16:33N 47°38' W 122°24'0 0.0
2016-Aug-24 15:33N 47°38' W 122°24'0 0.0
2016-Aug-24 14:33N 47°38' W 122°24'0 0.0
2016-Aug-24 13:27N 47°38' W 122°24'0 0.0
2016-Aug-24 12:33N 47°38' W 122°24'0 0.0
2016-Aug-24 11:30N 47°38' W 122°24'0 0.0
2016-Aug-24 10:33N 47°38' W 122°24'0 0.0
2016-Aug-24 09:33N 47°38' W 122°24'0 0.0
2016-Aug-24 08:33N 47°38' W 122°24'0 0.0
2016-Aug-24 07:33N 47°38' W 122°24'0 0.0
2016-Aug-24 06:33N 47°38' W 122°24'0 0.0
2016-Aug-24 04:31N 47°38' W 122°24'0 0.0
2016-Aug-24 03:33N 47°38' W 122°24'0 0.0
2016-Aug-24 02:33N 47°38' W 122°24'0 0.0
2016-Aug-24 01:33N 47°38' W 122°24'0 0.0
2016-Aug-24 00:33N 47°38' W 122°24'0 0.0
2016-Aug-23 23:33N 47°38' W 122°24'0 0.0
2016-Aug-23 22:33N 47°38' W 122°24'0 0.0
2016-Aug-23 21:30N 47°38' W 122°24'0 0.0
2016-Aug-23 20:33N 47°38' W 122°24'0 0.0
2016-Aug-23 19:33N 47°38' W 122°24'0 0.0
2016-Aug-23 18:33N 47°38' W 122°24'0 0.0
2016-Aug-23 17:33N 47°38' W 122°24'0 0.0
2016-Aug-23 16:33N 47°38' W 122°24'0 0.0
2016-Aug-23 15:33N 47°38' W 122°24'0 0.0
2016-Aug-23 14:30N 47°38' W 122°24'0 0.0
2016-Aug-23 13:33N 47°38' W 122°24'0 0.0
2016-Aug-23 12:33N 47°38' W 122°24'0 0.0
2016-Aug-23 11:33N 47°38' W 122°24'0 0.0
2016-Aug-23 10:31N 47°38' W 122°24'0 0.0
2016-Aug-23 09:33N 47°38' W 122°24'0 0.0
2016-Aug-23 08:33N 47°38' W 122°24'0 0.0
2016-Aug-23 07:33N 47°38' W 122°24'0 0.0
2016-Aug-23 06:33N 47°38' W 122°24'0 0.0
2016-Aug-23 05:33N 47°38' W 122°24'0 0.0
2016-Aug-23 04:33N 47°38' W 122°24'0 0.0
2016-Aug-23 03:33N 47°38' W 122°24'0 0.0
2016-Aug-23 02:33N 47°38' W 122°24'0 0.0
2016-Aug-23 01:33N 47°38' W 122°24'0 0.0
2016-Aug-23 00:33N 47°38' W 122°24'0 0.0
2016-Aug-22 23:27N 47°38' W 122°24'0 0.0
2016-Aug-22 22:33N 47°38' W 122°24'0 0.0
2016-Aug-22 21:33N 47°38' W 122°24'0 0.0
2016-Aug-22 20:33N 47°38' W 122°24'0 0.0
2016-Aug-22 19:34N 47°38' W 122°24'0 0.0
2016-Aug-22 18:33N 47°38' W 122°24'0 0.0
2016-Aug-22 17:33N 47°38' W 122°24'0 0.0
2016-Aug-22 16:31N 47°38' W 122°24'0 0.0
2016-Aug-22 15:33N 47°38' W 122°24'0 0.0
2016-Aug-22 14:30N 47°38' W 122°24'0 0.0
2016-Aug-22 13:33N 47°38' W 122°24'0 0.0
2016-Aug-22 12:33N 47°38' W 122°24'0 0.0
2016-Aug-22 11:33N 47°38' W 122°24'0 0.0
2016-Aug-22 10:33N 47°38' W 122°24'0 0.0
2016-Aug-22 09:33N 47°38' W 122°24'0 0.0
2016-Aug-22 08:33N 47°38' W 122°24'0 0.0
2016-Aug-22 07:33N 47°38' W 122°24'0 0.0
2016-Aug-22 06:33N 47°38' W 122°24'0 0.0
2016-Aug-22 05:33N 47°38' W 122°24'0 0.0
2016-Aug-22 04:33N 47°38' W 122°24'0 0.0
2016-Aug-22 03:33N 47°38' W 122°24'0 0.0
2016-Aug-22 02:33N 47°38' W 122°24'0 0.0
2016-Aug-22 01:33N 47°38' W 122°24'0 0.0
2016-Aug-22 00:28N 47°38' W 122°24'0 0.0
2016-Aug-21 23:33N 47°38' W 122°24'0 0.0
2016-Aug-21 22:33N 47°38' W 122°24'0 0.0
2016-Aug-21 21:33N 47°38' W 122°24'0 0.0
2016-Aug-21 20:33N 47°38' W 122°24'0 0.0
2016-Aug-21 19:33N 47°38' W 122°24'0 0.0
2016-Aug-21 18:33N 47°38' W 122°24'0 0.0
2016-Aug-21 17:33N 47°38' W 122°24'0 0.0
2016-Aug-21 16:33N 47°38' W 122°24'0 0.0
2016-Aug-21 15:33N 47°38' W 122°24'0 0.0
2016-Aug-21 14:33N 47°38' W 122°24'0 0.0
2016-Aug-21 13:33N 47°38' W 122°24'0 0.0
2016-Aug-21 12:33N 47°38' W 122°24'0 0.0
2016-Aug-21 11:33N 47°38' W 122°24'0 0.0
2016-Aug-21 10:33N 47°38' W 122°24'0 0.0
2016-Aug-21 09:33N 47°38' W 122°24'0 0.0
2016-Aug-21 08:33N 47°38' W 122°24'0 0.0
2016-Aug-21 07:33N 47°38' W 122°24'0 0.0
2016-Aug-21 06:33N 47°38' W 122°24'0 0.0
2016-Aug-21 05:33N 47°38' W 122°24'0 0.0
2016-Aug-21 04:33N 47°38' W 122°24'0 0.0
2016-Aug-21 03:33N 47°38' W 122°24'0 0.0
2016-Aug-21 02:33N 47°38' W 122°24'0 0.0
2016-Aug-21 01:33N 47°38' W 122°24'0 0.0
2016-Aug-21 00:33N 47°38' W 122°24'0 0.0
2016-Aug-20 23:33N 47°38' W 122°24'0 0.0
2016-Aug-20 22:33N 47°38' W 122°24'0 0.0
2016-Aug-20 21:33N 47°38' W 122°24'0 0.0
2016-Aug-20 20:33N 47°38' W 122°24'0 0.0
2016-Aug-20 19:33N 47°38' W 122°24'0 0.0
2016-Aug-20 18:28N 47°38' W 122°24'0 0.0
2016-Aug-20 17:33N 47°38' W 122°24'0 0.0
2016-Aug-20 16:33N 47°38' W 122°24'0 0.0
2016-Aug-20 15:33N 47°38' W 122°24'0 0.0
2016-Aug-20 14:30N 47°38' W 122°24'0 0.0
2016-Aug-20 13:33N 47°38' W 122°24'0 0.0
2016-Aug-20 12:33N 47°38' W 122°24'0 0.0
2016-Aug-20 11:33N 47°38' W 122°24'0 0.0
2016-Aug-20 10:32N 47°38' W 122°24'0 0.0
2016-Aug-20 09:32N 47°38' W 122°24'0 0.0
2016-Aug-20 08:32N 47°38' W 122°24'0 0.0
2016-Aug-20 07:30N 47°38' W 122°24'0 0.0
2016-Aug-20 03:32N 47°38' W 122°24'0 0.0
2016-Aug-19 05:30N 47°38' W 122°24'0 0.0
2016-Aug-19 04:33N 47°38' W 122°24'0 0.0
2016-Aug-19 03:30N 47°38' W 122°24'0 0.0
2016-Aug-19 02:33N 47°38' W 122°24'0 0.0
2016-Aug-19 01:33N 47°38' W 122°24'0 0.0
2016-Aug-19 00:32N 47°38' W 122°24'0 0.0
2016-Aug-18 23:33N 47°38' W 122°24'0 0.0
2016-Aug-18 22:33N 47°38' W 122°24'0 0.0
2016-Aug-18 21:33N 47°38' W 122°24'0 0.0
2016-Aug-18 20:33N 47°38' W 122°24'0 0.0
2016-Aug-18 19:30N 47°38' W 122°24'0 0.0
2016-Aug-18 18:33N 47°38' W 122°24'0 0.0
2016-Aug-18 17:24N 47°38' W 122°24'0 0.0
2016-Aug-18 16:33N 47°38' W 122°24'0 0.0
2016-Aug-18 15:32N 47°38' W 122°24'0 0.0
2016-Aug-18 14:33N 47°38' W 122°24'0 0.0
2016-Aug-18 13:28N 47°38' W 122°24'0 0.0
2016-Aug-18 12:32N 47°38' W 122°24'0 0.0
2016-Aug-18 11:32N 47°38' W 122°24'0 0.0
2016-Aug-18 10:32N 47°38' W 122°24'0 0.0
2016-Aug-18 09:32N 47°38' W 122°24'0 0.0
2016-Aug-18 08:28N 47°38' W 122°24'  
Track history (hours):
 
Tides and Currents Weather Stations Pressure Air Temp Water Temp Dewpoint Dewpoint Depression Visibility Wind Speed Wind Dir Waves Ship Positions

True Love

Owner: Spady, James R, Snoqualmie Pass, WA. More information available from US FCC via Universal Licensing System and Coast Guard Vessel Documentation Center.

Last reported at 2016-Aug-28 08:21 UTC. Time now 2016-Aug-28 08:47 UTC.
Position N 47°38' W 122°24'.

Length 16 m.

Type: Pleasure craft. MMSI: 367525310.

Date/timePositionNaut miles runAvg speedWind from/ knotsBaromVisibWave heightAir tempDewpointWater temp
2016-Aug-28 08:21N 47°38' W 122°24'0 0.0
2016-Aug-28 07:30N 47°38' W 122°24'0 0.0
2016-Aug-28 06:33N 47°38' W 122°24'0 0.0
2016-Aug-28 05:33N 47°38' W 122°24'0 0.0
2016-Aug-28 04:33N 47°38' W 122°24'0 0.0
2016-Aug-28 02:21N 47°38' W 122°24'0 0.0
2016-Aug-28 01:27N 47°38' W 122°24'0 0.0
2016-Aug-28 00:15N 47°38' W 122°24'0 0.0
2016-Aug-27 23:27N 47°38' W 122°24'0 0.0
2016-Aug-27 22:33N 47°38' W 122°24'0 0.0
2016-Aug-27 21:33N 47°38' W 122°24'0 0.0
2016-Aug-27 20:33N 47°38' W 122°24'0 0.0
2016-Aug-27 19:33N 47°38' W 122°24'0 0.0
2016-Aug-27 18:33N 47°38' W 122°24'0 0.0
2016-Aug-27 17:27N 47°38' W 122°24'0 0.0
2016-Aug-27 16:33N 47°38' W 122°24'0 0.0
2016-Aug-27 15:33N 47°38' W 122°24'0 0.0
2016-Aug-27 14:33N 47°38' W 122°24'0 0.0
2016-Aug-27 13:33N 47°38' W 122°24'0 0.0
2016-Aug-27 12:21N 47°38' W 122°24'0 0.0
2016-Aug-27 11:33N 47°38' W 122°24'0 0.0
2016-Aug-27 10:33N 47°38' W 122°24'0 0.0
2016-Aug-27 09:33N 47°38' W 122°24'0 0.0
2016-Aug-27 08:33N 47°38' W 122°24'0 0.0
2016-Aug-27 07:33N 47°38' W 122°24'0 0.0
2016-Aug-27 06:33N 47°38' W 122°24'0 0.0
2016-Aug-27 04:27N 47°38' W 122°24'0 0.0
2016-Aug-27 03:33N 47°38' W 122°24'0 0.0
2016-Aug-27 02:30N 47°38' W 122°24'0 0.0
2016-Aug-27 01:30N 47°38' W 122°24'0 0.0
2016-Aug-27 00:33N 47°38' W 122°24'0 0.0
2016-Aug-26 23:15N 47°38' W 122°24'0 0.0
2016-Aug-26 17:18N 47°38' W 122°24'0 0.0
2016-Aug-26 16:12N 47°38' W 122°24'0 0.1
2016-Aug-26 15:33N 47°38' W 122°24'0 0.0
2016-Aug-26 14:21N 47°38' W 122°24'0 0.0
2016-Aug-26 13:24N 47°38' W 122°24'0 0.0
2016-Aug-26 12:27N 47°38' W 122°24'0 0.0
2016-Aug-26 11:33N 47°38' W 122°24'0 0.0
2016-Aug-26 10:33N 47°38' W 122°24'0 0.0
2016-Aug-26 09:33N 47°38' W 122°24'0 0.0
2016-Aug-26 08:33N 47°38' W 122°24'0 0.0
2016-Aug-26 07:33N 47°38' W 122°24'0 0.0
2016-Aug-26 06:33N 47°38' W 122°24'0 0.0
2016-Aug-26 04:33N 47°38' W 122°24'0 0.0
2016-Aug-26 03:33N 47°38' W 122°24'6 5.7
2016-Aug-26 02:33N 47°33' W 122°28'4 1.5
2016-Aug-25 23:33N 47°37' W 122°25'1 1.3
2016-Aug-25 22:33N 47°38' W 122°24'0 0.0
2016-Aug-25 21:32N 47°38' W 122°24'0 0.0
2016-Aug-25 20:32N 47°38' W 122°24'0 0.0
2016-Aug-25 19:32N 47°38' W 122°24'0 0.0
2016-Aug-25 18:34N 47°38' W 122°24'0 0.0
2016-Aug-25 17:33N 47°38' W 122°24'0 0.0
2016-Aug-25 16:33N 47°38' W 122°24'0 0.0
2016-Aug-25 15:32N 47°38' W 122°24'0 0.0
2016-Aug-25 14:33N 47°38' W 122°24'0 0.0
2016-Aug-25 13:33N 47°38' W 122°24'0 0.0
2016-Aug-25 12:33N 47°38' W 122°24'0 0.0
2016-Aug-25 11:33N 47°38' W 122°24'0 0.0
2016-Aug-25 10:32N 47°38' W 122°24'0 0.0
2016-Aug-25 09:33N 47°38' W 122°24'0 0.0
2016-Aug-25 08:33N 47°38' W 122°24'0 0.0
2016-Aug-25 07:33N 47°38' W 122°24'0 0.0
2016-Aug-25 06:32N 47°38' W 122°24'0 0.0
2016-Aug-25 04:32N 47°38' W 122°24'0 0.0
2016-Aug-25 03:32N 47°38' W 122°24'7 7.4
2016-Aug-25 02:33N 47°32' W 122°30'7 6.3
2016-Aug-25 01:24N 47°38' W 122°24'0 0.0
2016-Aug-25 00:33N 47°38' W 122°24'0 0.0
2016-Aug-24 23:33N 47°38' W 122°24'0 0.0
2016-Aug-24 22:33N 47°38' W 122°24'0 0.0
2016-Aug-24 21:33N 47°38' W 122°24'0 0.0
2016-Aug-24 20:33N 47°38' W 122°24'0 0.0
2016-Aug-24 19:33N 47°38' W 122°24'0 0.0
2016-Aug-24 18:33N 47°38' W 122°24'0 0.0
2016-Aug-24 17:31N 47°38' W 122°24'0 0.0
2016-Aug-24 16:33N 47°38' W 122°24'0 0.0
2016-Aug-24 15:33N 47°38' W 122°24'0 0.0
2016-Aug-24 14:33N 47°38' W 122°24'0 0.0
2016-Aug-24 13:27N 47°38' W 122°24'0 0.0
2016-Aug-24 12:33N 47°38' W 122°24'0 0.0
2016-Aug-24 11:30N 47°38' W 122°24'0 0.0
2016-Aug-24 10:33N 47°38' W 122°24'0 0.0
2016-Aug-24 09:33N 47°38' W 122°24'0 0.0
2016-Aug-24 08:33N 47°38' W 122°24'0 0.0
2016-Aug-24 07:33N 47°38' W 122°24'0 0.0
2016-Aug-24 06:33N 47°38' W 122°24'0 0.0
2016-Aug-24 04:31N 47°38' W 122°24'0 0.0
2016-Aug-24 03:33N 47°38' W 122°24'0 0.0
2016-Aug-24 02:33N 47°38' W 122°24'0 0.0
2016-Aug-24 01:33N 47°38' W 122°24'0 0.0
2016-Aug-24 00:33N 47°38' W 122°24'0 0.0
2016-Aug-23 23:33N 47°38' W 122°24'0 0.0
2016-Aug-23 22:33N 47°38' W 122°24'0 0.0
2016-Aug-23 21:30N 47°38' W 122°24'0 0.0
2016-Aug-23 20:33N 47°38' W 122°24'0 0.0
2016-Aug-23 19:33N 47°38' W 122°24'0 0.0
2016-Aug-23 18:33N 47°38' W 122°24'0 0.0
2016-Aug-23 17:33N 47°38' W 122°24'0 0.0
2016-Aug-23 16:33N 47°38' W 122°24'0 0.0
2016-Aug-23 15:33N 47°38' W 122°24'0 0.0
2016-Aug-23 14:30N 47°38' W 122°24'0 0.0
2016-Aug-23 13:33N 47°38' W 122°24'0 0.0
2016-Aug-23 12:33N 47°38' W 122°24'0 0.0
2016-Aug-23 11:33N 47°38' W 122°24'0 0.0
2016-Aug-23 10:31N 47°38' W 122°24'0 0.0
2016-Aug-23 09:33N 47°38' W 122°24'0 0.0
2016-Aug-23 08:33N 47°38' W 122°24'0 0.0
2016-Aug-23 07:33N 47°38' W 122°24'0 0.0
2016-Aug-23 06:33N 47°38' W 122°24'0 0.0
2016-Aug-23 05:33N 47°38' W 122°24'0 0.0
2016-Aug-23 04:33N 47°38' W 122°24'0 0.0
2016-Aug-23 03:33N 47°38' W 122°24'0 0.0
2016-Aug-23 02:33N 47°38' W 122°24'0 0.0
2016-Aug-23 01:33N 47°38' W 122°24'0 0.0
2016-Aug-23 00:33N 47°38' W 122°24'0 0.0
2016-Aug-22 23:27N 47°38' W 122°24'0 0.0
2016-Aug-22 22:33N 47°38' W 122°24'0 0.0
2016-Aug-22 21:33N 47°38' W 122°24'0 0.0
2016-Aug-22 20:33N 47°38' W 122°24'0 0.0
2016-Aug-22 19:34N 47°38' W 122°24'0 0.0
2016-Aug-22 18:33N 47°38' W 122°24'0 0.0
2016-Aug-22 17:33N 47°38' W 122°24'0 0.0
2016-Aug-22 16:31N 47°38' W 122°24'0 0.0
2016-Aug-22 15:33N 47°38' W 122°24'0 0.0
2016-Aug-22 14:30N 47°38' W 122°24'0 0.0
2016-Aug-22 13:33N 47°38' W 122°24'0 0.0
2016-Aug-22 12:33N 47°38' W 122°24'0 0.0
2016-Aug-22 11:33N 47°38' W 122°24'0 0.0
2016-Aug-22 10:33N 47°38' W 122°24'0 0.0
2016-Aug-22 09:33N 47°38' W 122°24'0 0.0
2016-Aug-22 08:33N 47°38' W 122°24'0 0.0
2016-Aug-22 07:33N 47°38' W 122°24'0 0.0
2016-Aug-22 06:33N 47°38' W 122°24'0 0.0
2016-Aug-22 05:33N 47°38' W 122°24'0 0.0
2016-Aug-22 04:33N 47°38' W 122°24'0 0.0
2016-Aug-22 03:33N 47°38' W 122°24'0 0.0
2016-Aug-22 02:33N 47°38' W 122°24'0 0.0
2016-Aug-22 01:33N 47°38' W 122°24'0 0.0
2016-Aug-22 00:28N 47°38' W 122°24'0 0.0
2016-Aug-21 23:33N 47°38' W 122°24'0 0.0
2016-Aug-21 22:33N 47°38' W 122°24'0 0.0
2016-Aug-21 21:33N 47°38' W 122°24'0 0.0
2016-Aug-21 20:33N 47°38' W 122°24'0 0.0
2016-Aug-21 19:33N 47°38' W 122°24'0 0.0
2016-Aug-21 18:33N 47°38' W 122°24'0 0.0
2016-Aug-21 17:33N 47°38' W 122°24'0 0.0
2016-Aug-21 16:33N 47°38' W 122°24'0 0.0
2016-Aug-21 15:33N 47°38' W 122°24'0 0.0
2016-Aug-21 14:33N 47°38' W 122°24'0 0.0
2016-Aug-21 13:33N 47°38' W 122°24'0 0.0
2016-Aug-21 12:33N 47°38' W 122°24'0 0.0
2016-Aug-21 11:33N 47°38' W 122°24'0 0.0
2016-Aug-21 10:33N 47°38' W 122°24'0 0.0
2016-Aug-21 09:33N 47°38' W 122°24'0 0.0
2016-Aug-21 08:33N 47°38' W 122°24'0 0.0
2016-Aug-21 07:33N 47°38' W 122°24'0 0.0
2016-Aug-21 06:33N 47°38' W 122°24'0 0.0
2016-Aug-21 05:33N 47°38' W 122°24'0 0.0
2016-Aug-21 04:33N 47°38' W 122°24'0 0.0
2016-Aug-21 03:33N 47°38' W 122°24'0 0.0
2016-Aug-21 02:33N 47°38' W 122°24'0 0.0
2016-Aug-21 01:33N 47°38' W 122°24'0 0.0
2016-Aug-21 00:33N 47°38' W 122°24'0 0.0
2016-Aug-20 23:33N 47°38' W 122°24'0 0.0
2016-Aug-20 22:33N 47°38' W 122°24'0 0.0
2016-Aug-20 21:33N 47°38' W 122°24'0 0.0
2016-Aug-20 20:33N 47°38' W 122°24'0 0.0
2016-Aug-20 19:33N 47°38' W 122°24'0 0.0
2016-Aug-20 18:28N 47°38' W 122°24'0 0.0
2016-Aug-20 17:33N 47°38' W 122°24'0 0.0
2016-Aug-20 16:33N 47°38' W 122°24'0 0.0
2016-Aug-20 15:33N 47°38' W 122°24'0 0.0
2016-Aug-20 14:30N 47°38' W 122°24'0 0.0
2016-Aug-20 13:33N 47°38' W 122°24'0 0.0
2016-Aug-20 12:33N 47°38' W 122°24'0 0.0
2016-Aug-20 11:33N 47°38' W 122°24'0 0.0
2016-Aug-20 10:32N 47°38' W 122°24'0 0.0
2016-Aug-20 09:32N 47°38' W 122°24'0 0.0
2016-Aug-20 08:32N 47°38' W 122°24'0 0.0
2016-Aug-20 07:30N 47°38' W 122°24'0 0.0
2016-Aug-20 03:32N 47°38' W 122°24'0 0.0
2016-Aug-19 05:30N 47°38' W 122°24'0 0.0
2016-Aug-19 04:33N 47°38' W 122°24'0 0.0
2016-Aug-19 03:30N 47°38' W 122°24'0 0.0
2016-Aug-19 02:33N 47°38' W 122°24'0 0.0
2016-Aug-19 01:33N 47°38' W 122°24'0 0.0
2016-Aug-19 00:32N 47°38' W 122°24'0 0.0
2016-Aug-18 23:33N 47°38' W 122°24'0 0.0
2016-Aug-18 22:33N 47°38' W 122°24'0 0.0
2016-Aug-18 21:33N 47°38' W 122°24'0 0.0
2016-Aug-18 20:33N 47°38' W 122°24'0 0.0
2016-Aug-18 19:30N 47°38' W 122°24'0 0.0
2016-Aug-18 18:33N 47°38' W 122°24'0 0.0
2016-Aug-18 17:24N 47°38' W 122°24'0 0.0
2016-Aug-18 16:33N 47°38' W 122°24'0 0.0
2016-Aug-18 15:32N 47°38' W 122°24'0 0.0
2016-Aug-18 14:33N 47°38' W 122°24'0 0.0
2016-Aug-18 13:28N 47°38' W 122°24'0 0.0
2016-Aug-18 12:32N 47°38' W 122°24'0 0.0
2016-Aug-18 11:32N 47°38' W 122°24'0 0.0
2016-Aug-18 10:32N 47°38' W 122°24'0 0.0
2016-Aug-18 09:32N 47°38' W 122°24'0 0.0
2016-Aug-18 08:28N 47°38' W 122°24'  

Dump ship's entire track history